sensor_id;sensor_type;location;lat;lon;timestamp;P1;durP1;ratioP1;P2;durP2;ratioP2
25972;SDS011;13765;51.166;4.466;2023-05-07T00:00:33;21.02;;;7.65;;
25972;SDS011;13765;51.166;4.466;2023-05-07T00:02:59;21.60;;;8.05;;
25972;SDS011;13765;51.166;4.466;2023-05-07T00:05:26;19.27;;;7.65;;
25972;SDS011;13765;51.166;4.466;2023-05-07T00:07:54;16.67;;;7.57;;
25972;SDS011;13765;51.166;4.466;2023-05-07T00:10:20;16.65;;;6.38;;
25972;SDS011;13765;51.166;4.466;2023-05-07T00:12:45;14.63;;;5.40;;
25972;SDS011;13765;51.166;4.466;2023-05-07T00:15:13;16.73;;;5.72;;
25972;SDS011;13765;51.166;4.466;2023-05-07T00:17:39;13.65;;;5.82;;
25972;SDS011;13765;51.166;4.466;2023-05-07T00:20:07;20.40;;;7.78;;
25972;SDS011;13765;51.166;4.466;2023-05-07T00:22:33;19.50;;;6.88;;
25972;SDS011;13765;51.166;4.466;2023-05-07T00:24:59;16.75;;;6.65;;
25972;SDS011;13765;51.166;4.466;2023-05-07T00:27:25;20.63;;;6.47;;
25972;SDS011;13765;51.166;4.466;2023-05-07T00:29:50;22.90;;;6.93;;
25972;SDS011;13765;51.166;4.466;2023-05-07T00:32:16;15.68;;;6.55;;
25972;SDS011;13765;51.166;4.466;2023-05-07T00:34:42;17.00;;;6.95;;
25972;SDS011;13765;51.166;4.466;2023-05-07T00:37:08;16.05;;;6.57;;
25972;SDS011;13765;51.166;4.466;2023-05-07T00:39:36;15.13;;;6.00;;
25972;SDS011;13765;51.166;4.466;2023-05-07T00:42:02;20.10;;;6.45;;
25972;SDS011;13765;51.166;4.466;2023-05-07T00:44:28;20.33;;;7.88;;
25972;SDS011;13765;51.166;4.466;2023-05-07T00:46:54;15.65;;;6.53;;
25972;SDS011;13765;51.166;4.466;2023-05-07T00:49:28;23.52;;;7.47;;
25972;SDS011;13765;51.166;4.466;2023-05-07T00:52:02;19.40;;;7.25;;
25972;SDS011;13765;51.166;4.466;2023-05-07T00:54:30;16.73;;;6.75;;
25972;SDS011;13765;51.166;4.466;2023-05-07T00:56:56;18.00;;;6.50;;
25972;SDS011;13765;51.166;4.466;2023-05-07T00:59:22;19.13;;;6.78;;
25972;SDS011;13765;51.166;4.466;2023-05-07T01:01:48;14.90;;;6.35;;
25972;SDS011;13765;51.166;4.466;2023-05-07T01:04:17;16.73;;;7.13;;
25972;SDS011;13765;51.166;4.466;2023-05-07T01:06:42;19.58;;;7.70;;
25972;SDS011;13765;51.166;4.466;2023-05-07T01:09:12;14.88;;;6.00;;
25972;SDS011;13765;51.166;4.466;2023-05-07T01:11:38;14.98;;;5.95;;
25972;SDS011;13765;51.166;4.466;2023-05-07T01:14:07;15.15;;;6.18;;
25972;SDS011;13765;51.166;4.466;2023-05-07T01:16:34;18.98;;;6.45;;
25972;SDS011;13765;51.166;4.466;2023-05-07T01:19:01;14.52;;;5.63;;
25972;SDS011;13765;51.166;4.466;2023-05-07T01:21:30;17.20;;;6.10;;
25972;SDS011;13765;51.166;4.466;2023-05-07T01:23:58;19.02;;;6.15;;
25972;SDS011;13765;51.166;4.466;2023-05-07T01:26:24;18.27;;;6.82;;
25972;SDS011;13765;51.166;4.466;2023-05-07T01:28:50;16.90;;;6.15;;
25972;SDS011;13765;51.166;4.466;2023-05-07T01:31:15;16.02;;;6.78;;
25972;SDS011;13765;51.166;4.466;2023-05-07T01:33:42;16.65;;;6.93;;
25972;SDS011;13765;51.166;4.466;2023-05-07T01:36:11;23.50;;;8.00;;
25972;SDS011;13765;51.166;4.466;2023-05-07T01:38:38;17.25;;;6.95;;
25972;SDS011;13765;51.166;4.466;2023-05-07T01:41:05;17.13;;;7.45;;
25972;SDS011;13765;51.166;4.466;2023-05-07T01:43:32;18.13;;;7.13;;
25972;SDS011;13765;51.166;4.466;2023-05-07T01:45:58;21.77;;;8.43;;
25972;SDS011;13765;51.166;4.466;2023-05-07T01:48:24;19.15;;;7.70;;
25972;SDS011;13765;51.166;4.466;2023-05-07T01:50:53;19.08;;;8.07;;
25972;SDS011;13765;51.166;4.466;2023-05-07T01:53:19;16.63;;;7.13;;
25972;SDS011;13765;51.166;4.466;2023-05-07T01:55:47;19.00;;;7.15;;
25972;SDS011;13765;51.166;4.466;2023-05-07T01:58:15;19.65;;;6.88;;
25972;SDS011;13765;51.166;4.466;2023-05-07T02:00:43;18.65;;;7.60;;
25972;SDS011;13765;51.166;4.466;2023-05-07T02:03:09;19.35;;;6.38;;
25972;SDS011;13765;51.166;4.466;2023-05-07T02:05:34;21.63;;;7.00;;
25972;SDS011;13765;51.166;4.466;2023-05-07T02:08:00;17.85;;;7.07;;
25972;SDS011;13765;51.166;4.466;2023-05-07T02:10:31;15.98;;;6.93;;
25972;SDS011;13765;51.166;4.466;2023-05-07T02:12:56;15.50;;;6.43;;
25972;SDS011;13765;51.166;4.466;2023-05-07T02:15:27;19.23;;;6.95;;
25972;SDS011;13765;51.166;4.466;2023-05-07T02:18:03;15.18;;;6.07;;
25972;SDS011;13765;51.166;4.466;2023-05-07T02:20:30;15.63;;;6.35;;
25972;SDS011;13765;51.166;4.466;2023-05-07T02:22:55;18.80;;;7.00;;
25972;SDS011;13765;51.166;4.466;2023-05-07T02:25:23;22.40;;;6.32;;
25972;SDS011;13765;51.166;4.466;2023-05-07T02:27:49;17.20;;;6.22;;
25972;SDS011;13765;51.166;4.466;2023-05-07T02:30:15;16.65;;;6.72;;
25972;SDS011;13765;51.166;4.466;2023-05-07T02:32:40;14.20;;;6.28;;
25972;SDS011;13765;51.166;4.466;2023-05-07T02:35:06;22.58;;;6.30;;
25972;SDS011;13765;51.166;4.466;2023-05-07T02:37:32;16.25;;;6.53;;
25972;SDS011;13765;51.166;4.466;2023-05-07T02:39:58;16.92;;;6.60;;
25972;SDS011;13765;51.166;4.466;2023-05-07T02:42:24;14.68;;;6.07;;
25972;SDS011;13765;51.166;4.466;2023-05-07T02:44:49;15.10;;;6.50;;
25972;SDS011;13765;51.166;4.466;2023-05-07T02:47:15;17.02;;;6.78;;
25972;SDS011;13765;51.166;4.466;2023-05-07T02:49:41;17.48;;;7.20;;
25972;SDS011;13765;51.166;4.466;2023-05-07T02:52:09;14.35;;;6.35;;
25972;SDS011;13765;51.166;4.466;2023-05-07T02:54:34;15.70;;;6.32;;
25972;SDS011;13765;51.166;4.466;2023-05-07T02:57:00;16.88;;;6.75;;
25972;SDS011;13765;51.166;4.466;2023-05-07T02:59:27;18.55;;;6.47;;
25972;SDS011;13765;51.166;4.466;2023-05-07T03:01:52;14.85;;;6.50;;
25972;SDS011;13765;51.166;4.466;2023-05-07T03:04:18;18.10;;;6.47;;
25972;SDS011;13765;51.166;4.466;2023-05-07T03:06:46;15.15;;;5.90;;
25972;SDS011;13765;51.166;4.466;2023-05-07T03:09:11;17.33;;;6.63;;
25972;SDS011;13765;51.166;4.466;2023-05-07T03:11:37;18.33;;;6.07;;
25972;SDS011;13765;51.166;4.466;2023-05-07T03:14:05;17.17;;;6.65;;
25972;SDS011;13765;51.166;4.466;2023-05-07T03:16:33;15.95;;;6.82;;
25972;SDS011;13765;51.166;4.466;2023-05-07T03:18:58;17.65;;;6.70;;
25972;SDS011;13765;51.166;4.466;2023-05-07T03:21:24;15.32;;;6.68;;
25972;SDS011;13765;51.166;4.466;2023-05-07T03:23:51;17.55;;;6.53;;
25972;SDS011;13765;51.166;4.466;2023-05-07T03:26:17;16.48;;;6.30;;
25972;SDS011;13765;51.166;4.466;2023-05-07T03:28:45;18.40;;;7.75;;
25972;SDS011;13765;51.166;4.466;2023-05-07T03:31:11;16.60;;;6.82;;
25972;SDS011;13765;51.166;4.466;2023-05-07T03:33:49;19.30;;;6.93;;
25972;SDS011;13765;51.166;4.466;2023-05-07T03:36:18;15.50;;;5.93;;
25972;SDS011;13765;51.166;4.466;2023-05-07T03:38:44;21.42;;;7.22;;
25972;SDS011;13765;51.166;4.466;2023-05-07T03:41:12;17.05;;;7.00;;
25972;SDS011;13765;51.166;4.466;2023-05-07T03:43:38;15.32;;;6.47;;
25972;SDS011;13765;51.166;4.466;2023-05-07T03:46:03;14.02;;;6.00;;
25972;SDS011;13765;51.166;4.466;2023-05-07T03:48:29;14.85;;;5.65;;
25972;SDS011;13765;51.166;4.466;2023-05-07T03:50:55;21.33;;;6.55;;
25972;SDS011;13765;51.166;4.466;2023-05-07T03:53:22;16.83;;;6.20;;
25972;SDS011;13765;51.166;4.466;2023-05-07T03:55:50;15.10;;;6.28;;
25972;SDS011;13765;51.166;4.466;2023-05-07T03:58:16;14.32;;;6.18;;
25972;SDS011;13765;51.166;4.466;2023-05-07T04:00:42;17.27;;;6.15;;
25972;SDS011;13765;51.166;4.466;2023-05-07T04:03:07;17.17;;;6.90;;
25972;SDS011;13765;51.166;4.466;2023-05-07T04:05:33;15.73;;;6.20;;
25972;SDS011;13765;51.166;4.466;2023-05-07T04:07:59;16.10;;;6.70;;
25972;SDS011;13765;51.166;4.466;2023-05-07T04:10:25;16.15;;;6.20;;
25972;SDS011;13765;51.166;4.466;2023-05-07T04:12:53;15.70;;;7.00;;
25972;SDS011;13765;51.166;4.466;2023-05-07T04:15:18;18.48;;;7.63;;
25972;SDS011;13765;51.166;4.466;2023-05-07T04:17:44;17.63;;;6.00;;
25972;SDS011;13765;51.166;4.466;2023-05-07T04:20:13;19.17;;;7.22;;
25972;SDS011;13765;51.166;4.466;2023-05-07T04:22:41;20.73;;;7.15;;
25972;SDS011;13765;51.166;4.466;2023-05-07T04:25:09;18.85;;;6.85;;
25972;SDS011;13765;51.166;4.466;2023-05-07T04:27:35;22.25;;;7.47;;
25972;SDS011;13765;51.166;4.466;2023-05-07T04:30:03;19.35;;;6.45;;
25972;SDS011;13765;51.166;4.466;2023-05-07T04:32:30;18.98;;;7.18;;
25972;SDS011;13765;51.166;4.466;2023-05-07T04:34:56;17.20;;;6.57;;
25972;SDS011;13765;51.166;4.466;2023-05-07T04:37:21;14.50;;;6.97;;
25972;SDS011;13765;51.166;4.466;2023-05-07T04:39:47;21.83;;;7.10;;
25972;SDS011;13765;51.166;4.466;2023-05-07T04:42:16;14.77;;;7.00;;
25972;SDS011;13765;51.166;4.466;2023-05-07T04:44:46;18.48;;;7.47;;
25972;SDS011;13765;51.166;4.466;2023-05-07T04:47:11;14.90;;;6.47;;
25972;SDS011;13765;51.166;4.466;2023-05-07T04:49:38;15.95;;;6.57;;
25972;SDS011;13765;51.166;4.466;2023-05-07T04:52:03;17.33;;;6.70;;
25972;SDS011;13765;51.166;4.466;2023-05-07T04:54:29;17.90;;;6.97;;
25972;SDS011;13765;51.166;4.466;2023-05-07T04:56:55;17.52;;;6.60;;
25972;SDS011;13765;51.166;4.466;2023-05-07T04:59:21;17.00;;;6.43;;
25972;SDS011;13765;51.166;4.466;2023-05-07T05:01:47;16.55;;;6.53;;
25972;SDS011;13765;51.166;4.466;2023-05-07T05:04:12;17.90;;;5.95;;
25972;SDS011;13765;51.166;4.466;2023-05-07T05:06:38;19.23;;;6.97;;
25972;SDS011;13765;51.166;4.466;2023-05-07T05:09:04;16.48;;;6.40;;
25972;SDS011;13765;51.166;4.466;2023-05-07T05:11:30;15.73;;;6.82;;
25972;SDS011;13765;51.166;4.466;2023-05-07T05:13:56;20.73;;;6.93;;
25972;SDS011;13765;51.166;4.466;2023-05-07T05:16:22;16.65;;;6.32;;
25972;SDS011;13765;51.166;4.466;2023-05-07T05:18:48;17.65;;;6.85;;
25972;SDS011;13765;51.166;4.466;2023-05-07T05:21:17;15.65;;;6.03;;
25972;SDS011;13765;51.166;4.466;2023-05-07T05:23:45;18.13;;;7.22;;
25972;SDS011;13765;51.166;4.466;2023-05-07T05:26:10;16.88;;;6.90;;
25972;SDS011;13765;51.166;4.466;2023-05-07T05:28:36;17.17;;;7.38;;
25972;SDS011;13765;51.166;4.466;2023-05-07T05:31:02;13.95;;;6.10;;
25972;SDS011;13765;51.166;4.466;2023-05-07T05:33:30;19.73;;;6.95;;
25972;SDS011;13765;51.166;4.466;2023-05-07T05:35:55;15.65;;;6.45;;
25972;SDS011;13765;51.166;4.466;2023-05-07T05:38:21;16.52;;;6.97;;
25972;SDS011;13765;51.166;4.466;2023-05-07T05:40:47;16.35;;;6.25;;
25972;SDS011;13765;51.166;4.466;2023-05-07T05:43:13;17.10;;;6.07;;
25972;SDS011;13765;51.166;4.466;2023-05-07T05:45:42;18.17;;;6.65;;
25972;SDS011;13765;51.166;4.466;2023-05-07T05:48:07;20.17;;;7.30;;
25972;SDS011;13765;51.166;4.466;2023-05-07T05:50:33;22.15;;;7.05;;
25972;SDS011;13765;51.166;4.466;2023-05-07T05:53:01;23.10;;;7.15;;
25972;SDS011;13765;51.166;4.466;2023-05-07T05:55:27;16.92;;;6.22;;
25972;SDS011;13765;51.166;4.466;2023-05-07T05:57:53;19.20;;;7.15;;
25972;SDS011;13765;51.166;4.466;2023-05-07T06:00:19;16.70;;;6.88;;
25972;SDS011;13765;51.166;4.466;2023-05-07T06:02:47;18.42;;;7.03;;
25972;SDS011;13765;51.166;4.466;2023-05-07T06:05:17;16.27;;;7.03;;
25972;SDS011;13765;51.166;4.466;2023-05-07T06:07:43;15.13;;;6.05;;
25972;SDS011;13765;51.166;4.466;2023-05-07T06:10:11;19.88;;;7.15;;
25972;SDS011;13765;51.166;4.466;2023-05-07T06:12:37;16.05;;;6.30;;
25972;SDS011;13765;51.166;4.466;2023-05-07T06:15:03;21.63;;;7.18;;
25972;SDS011;13765;51.166;4.466;2023-05-07T06:17:32;16.00;;;6.35;;
25972;SDS011;13765;51.166;4.466;2023-05-07T06:19:57;16.23;;;5.68;;
25972;SDS011;13765;51.166;4.466;2023-05-07T06:22:23;17.58;;;6.82;;
25972;SDS011;13765;51.166;4.466;2023-05-07T06:24:48;18.60;;;6.38;;
25972;SDS011;13765;51.166;4.466;2023-05-07T06:27:14;15.98;;;5.85;;
25972;SDS011;13765;51.166;4.466;2023-05-07T06:29:40;16.77;;;6.03;;
25972;SDS011;13765;51.166;4.466;2023-05-07T06:32:06;15.27;;;6.40;;
25972;SDS011;13765;51.166;4.466;2023-05-07T06:34:35;15.23;;;5.95;;
25972;SDS011;13765;51.166;4.466;2023-05-07T06:37:01;17.35;;;7.18;;
25972;SDS011;13765;51.166;4.466;2023-05-07T06:39:27;18.15;;;8.05;;
25972;SDS011;13765;51.166;4.466;2023-05-07T06:41:52;14.48;;;6.13;;
25972;SDS011;13765;51.166;4.466;2023-05-07T06:44:18;16.55;;;6.43;;
25972;SDS011;13765;51.166;4.466;2023-05-07T06:46:44;17.15;;;6.00;;
25972;SDS011;13765;51.166;4.466;2023-05-07T06:49:10;18.42;;;6.35;;
25972;SDS011;13765;51.166;4.466;2023-05-07T06:51:37;18.40;;;7.28;;
25972;SDS011;13765;51.166;4.466;2023-05-07T06:54:03;16.58;;;6.15;;
25972;SDS011;13765;51.166;4.466;2023-05-07T06:56:29;16.75;;;6.65;;
25972;SDS011;13765;51.166;4.466;2023-05-07T06:58:55;17.58;;;6.32;;
25972;SDS011;13765;51.166;4.466;2023-05-07T07:01:23;17.02;;;6.20;;
25972;SDS011;13765;51.166;4.466;2023-05-07T07:03:51;17.88;;;6.57;;
25972;SDS011;13765;51.166;4.466;2023-05-07T07:06:19;16.00;;;6.55;;
25972;SDS011;13765;51.166;4.466;2023-05-07T07:08:45;16.48;;;6.90;;
25972;SDS011;13765;51.166;4.466;2023-05-07T07:11:11;16.63;;;6.75;;
25972;SDS011;13765;51.166;4.466;2023-05-07T07:13:37;22.63;;;7.30;;
25972;SDS011;13765;51.166;4.466;2023-05-07T07:16:02;17.63;;;7.30;;
25972;SDS011;13765;51.166;4.466;2023-05-07T07:18:31;19.25;;;7.13;;
25972;SDS011;13765;51.166;4.466;2023-05-07T07:20:56;15.70;;;5.95;;
25972;SDS011;13765;51.166;4.466;2023-05-07T07:23:23;14.43;;;5.63;;
25972;SDS011;13765;51.166;4.466;2023-05-07T07:25:48;15.40;;;5.90;;
25972;SDS011;13765;51.166;4.466;2023-05-07T07:28:14;21.52;;;7.03;;
25972;SDS011;13765;51.166;4.466;2023-05-07T07:30:39;17.95;;;6.95;;
25972;SDS011;13765;51.166;4.466;2023-05-07T07:33:05;19.77;;;7.60;;
25972;SDS011;13765;51.166;4.466;2023-05-07T07:35:34;18.42;;;7.07;;
25972;SDS011;13765;51.166;4.466;2023-05-07T07:38:00;17.65;;;6.00;;
25972;SDS011;13765;51.166;4.466;2023-05-07T07:40:26;13.63;;;5.53;;
25972;SDS011;13765;51.166;4.466;2023-05-07T07:42:52;18.08;;;6.10;;
25972;SDS011;13765;51.166;4.466;2023-05-07T07:45:18;17.33;;;6.80;;
25972;SDS011;13765;51.166;4.466;2023-05-07T07:47:44;14.90;;;5.25;;
25972;SDS011;13765;51.166;4.466;2023-05-07T07:50:10;13.73;;;5.63;;
25972;SDS011;13765;51.166;4.466;2023-05-07T07:52:35;17.75;;;6.85;;
25972;SDS011;13765;51.166;4.466;2023-05-07T07:55:01;14.32;;;5.88;;
25972;SDS011;13765;51.166;4.466;2023-05-07T07:57:28;12.23;;;5.45;;
25972;SDS011;13765;51.166;4.466;2023-05-07T07:59:54;16.42;;;6.28;;
25972;SDS011;13765;51.166;4.466;2023-05-07T08:02:20;15.02;;;5.65;;
25972;SDS011;13765;51.166;4.466;2023-05-07T08:04:45;13.40;;;5.75;;
25972;SDS011;13765;51.166;4.466;2023-05-07T08:07:12;16.83;;;6.05;;
25972;SDS011;13765;51.166;4.466;2023-05-07T08:09:38;15.75;;;6.40;;
25972;SDS011;13765;51.166;4.466;2023-05-07T08:12:05;17.63;;;4.95;;
25972;SDS011;13765;51.166;4.466;2023-05-07T08:14:31;13.75;;;4.97;;
25972;SDS011;13765;51.166;4.466;2023-05-07T08:16:57;14.82;;;5.25;;
25972;SDS011;13765;51.166;4.466;2023-05-07T08:19:25;18.30;;;6.32;;
25972;SDS011;13765;51.166;4.466;2023-05-07T08:21:51;10.43;;;4.43;;
25972;SDS011;13765;51.166;4.466;2023-05-07T08:24:17;13.50;;;5.25;;
25972;SDS011;13765;51.166;4.466;2023-05-07T08:26:43;11.68;;;4.85;;
25972;SDS011;13765;51.166;4.466;2023-05-07T08:29:10;11.40;;;4.35;;
25972;SDS011;13765;51.166;4.466;2023-05-07T08:31:36;13.73;;;4.63;;
25972;SDS011;13765;51.166;4.466;2023-05-07T08:34:03;12.88;;;4.60;;
25972;SDS011;13765;51.166;4.466;2023-05-07T08:36:30;12.85;;;4.78;;
25972;SDS011;13765;51.166;4.466;2023-05-07T08:38:55;15.52;;;4.97;;
25972;SDS011;13765;51.166;4.466;2023-05-07T09:18:26;13.45;;;4.82;;
25972;SDS011;13765;51.166;4.466;2023-05-07T09:20:52;13.45;;;4.35;;
25972;SDS011;13765;51.166;4.466;2023-05-07T09:23:17;13.30;;;5.55;;
25972;SDS011;13765;51.166;4.466;2023-05-07T09:25:43;13.23;;;4.45;;
25972;SDS011;13765;51.166;4.466;2023-05-07T09:43:10;14.23;;;4.88;;
25972;SDS011;13765;51.166;4.466;2023-05-07T09:45:37;12.23;;;3.95;;
25972;SDS011;13765;51.166;4.466;2023-05-07T09:48:05;17.45;;;4.68;;
25972;SDS011;13765;51.166;4.466;2023-05-07T09:50:32;12.02;;;4.85;;
25972;SDS011;13765;51.166;4.466;2023-05-07T09:53:04;10.85;;;4.28;;
25972;SDS011;13765;51.166;4.466;2023-05-07T09:55:30;12.68;;;4.97;;
25972;SDS011;13765;51.166;4.466;2023-05-07T09:57:56;11.18;;;4.15;;
25972;SDS011;13765;51.166;4.466;2023-05-07T10:00:23;13.18;;;3.80;;
25972;SDS011;13765;51.166;4.466;2023-05-07T10:02:53;11.05;;;3.55;;
25972;SDS011;13765;51.166;4.466;2023-05-07T10:05:22;10.18;;;3.60;;
25972;SDS011;13765;51.166;4.466;2023-05-07T10:07:48;10.27;;;3.55;;
25972;SDS011;13765;51.166;4.466;2023-05-07T10:10:15;8.10;;;3.42;;
25972;SDS011;13765;51.166;4.466;2023-05-07T10:12:42;9.50;;;4.10;;
25972;SDS011;13765;51.166;4.466;2023-05-07T10:15:08;11.82;;;4.15;;
25972;SDS011;13765;51.166;4.466;2023-05-07T10:17:38;11.73;;;4.25;;
25972;SDS011;13765;51.166;4.466;2023-05-07T10:20:05;13.13;;;4.82;;
25972;SDS011;13765;51.166;4.466;2023-05-07T10:22:39;9.82;;;3.00;;
25972;SDS011;13765;51.166;4.466;2023-05-07T10:25:28;10.15;;;2.72;;
25972;SDS011;13765;51.166;4.466;2023-05-07T10:27:59;7.22;;;2.65;;
25972;SDS011;13765;51.166;4.466;2023-05-07T10:33:00;5.47;;;2.42;;
25972;SDS011;13765;51.166;4.466;2023-05-07T10:35:31;7.65;;;2.70;;
25972;SDS011;13765;51.166;4.466;2023-05-07T10:38:03;11.30;;;4.25;;
25972;SDS011;13765;51.166;4.466;2023-05-07T10:40:30;9.52;;;3.20;;
25972;SDS011;13765;51.166;4.466;2023-05-07T10:42:57;7.22;;;2.70;;
25972;SDS011;13765;51.166;4.466;2023-05-07T10:45:32;10.88;;;3.33;;
25972;SDS011;13765;51.166;4.466;2023-05-07T10:50:35;7.63;;;2.90;;
25972;SDS011;13765;51.166;4.466;2023-05-07T10:55:43;11.80;;;3.30;;
25972;SDS011;13765;51.166;4.466;2023-05-07T10:58:23;7.38;;;3.30;;
25972;SDS011;13765;51.166;4.466;2023-05-07T11:01:01;9.38;;;3.42;;
25972;SDS011;13765;51.166;4.466;2023-05-07T11:03:27;6.15;;;2.70;;
25972;SDS011;13765;51.166;4.466;2023-05-07T11:06:10;5.28;;;2.25;;
25972;SDS011;13765;51.166;4.466;2023-05-07T11:08:55;8.63;;;2.63;;
25972;SDS011;13765;51.166;4.466;2023-05-07T11:17:09;6.88;;;2.17;;
25972;SDS011;13765;51.166;4.466;2023-05-07T11:19:49;8.93;;;3.33;;
25972;SDS011;13765;51.166;4.466;2023-05-07T11:25:00;10.23;;;2.83;;
25972;SDS011;13765;51.166;4.466;2023-05-07T11:27:26;10.02;;;3.13;;
25972;SDS011;13765;51.166;4.466;2023-05-07T11:29:55;7.38;;;2.88;;
25972;SDS011;13765;51.166;4.466;2023-05-07T11:32:27;6.50;;;2.33;;
25972;SDS011;13765;51.166;4.466;2023-05-07T11:34:54;9.68;;;2.55;;
25972;SDS011;13765;51.166;4.466;2023-05-07T11:37:22;12.85;;;2.92;;
25972;SDS011;13765;51.166;4.466;2023-05-07T11:39:49;3.90;;;1.92;;
25972;SDS011;13765;51.166;4.466;2023-05-07T11:42:28;7.50;;;2.28;;
25972;SDS011;13765;51.166;4.466;2023-05-07T11:44:55;9.07;;;2.20;;
25972;SDS011;13765;51.166;4.466;2023-05-07T11:47:21;6.15;;;3.03;;
25972;SDS011;13765;51.166;4.466;2023-05-07T11:49:50;10.48;;;2.83;;
25972;SDS011;13765;51.166;4.466;2023-05-07T11:52:19;7.13;;;2.38;;
25972;SDS011;13765;51.166;4.466;2023-05-07T11:54:49;7.15;;;2.20;;
25972;SDS011;13765;51.166;4.466;2023-05-07T11:57:19;6.03;;;2.38;;
25972;SDS011;13765;51.166;4.466;2023-05-07T11:59:46;9.27;;;3.03;;
25972;SDS011;13765;51.166;4.466;2023-05-07T12:02:17;8.23;;;2.63;;
25972;SDS011;13765;51.166;4.466;2023-05-07T12:04:45;4.70;;;2.00;;
25972;SDS011;13765;51.166;4.466;2023-05-07T12:07:12;9.65;;;2.63;;
25972;SDS011;13765;51.166;4.466;2023-05-07T12:09:39;6.10;;;2.97;;
25972;SDS011;13765;51.166;4.466;2023-05-07T12:12:05;7.97;;;3.20;;
25972;SDS011;13765;51.166;4.466;2023-05-07T12:14:31;9.30;;;2.97;;
25972;SDS011;13765;51.166;4.466;2023-05-07T12:17:00;10.32;;;3.38;;
25972;SDS011;13765;51.166;4.466;2023-05-07T12:19:33;7.78;;;2.67;;
25972;SDS011;13765;51.166;4.466;2023-05-07T12:21:59;8.10;;;2.60;;
25972;SDS011;13765;51.166;4.466;2023-05-07T12:24:28;4.07;;;2.05;;
25972;SDS011;13765;51.166;4.466;2023-05-07T12:26:53;9.63;;;3.00;;
25972;SDS011;13765;51.166;4.466;2023-05-07T12:29:23;6.90;;;2.88;;
25972;SDS011;13765;51.166;4.466;2023-05-07T12:31:49;6.68;;;3.25;;
25972;SDS011;13765;51.166;4.466;2023-05-07T12:34:15;10.63;;;3.50;;
25972;SDS011;13765;51.166;4.466;2023-05-07T12:36:41;8.23;;;3.25;;
25972;SDS011;13765;51.166;4.466;2023-05-07T12:39:09;11.18;;;5.10;;
25972;SDS011;13765;51.166;4.466;2023-05-07T12:41:54;10.07;;;3.33;;
25972;SDS011;13765;51.166;4.466;2023-05-07T12:44:24;8.38;;;3.05;;
25972;SDS011;13765;51.166;4.466;2023-05-07T12:46:58;10.02;;;3.13;;
25972;SDS011;13765;51.166;4.466;2023-05-07T12:49:26;10.55;;;2.92;;
25972;SDS011;13765;51.166;4.466;2023-05-07T12:51:53;7.03;;;2.78;;
25972;SDS011;13765;51.166;4.466;2023-05-07T12:54:31;5.40;;;2.72;;
25972;SDS011;13765;51.166;4.466;2023-05-07T12:57:01;8.15;;;2.35;;
25972;SDS011;13765;51.166;4.466;2023-05-07T12:59:34;8.38;;;2.58;;
25972;SDS011;13765;51.166;4.466;2023-05-07T13:02:04;8.30;;;2.90;;
25972;SDS011;13765;51.166;4.466;2023-05-07T13:04:30;6.45;;;2.42;;
25972;SDS011;13765;51.166;4.466;2023-05-07T13:06:56;4.75;;;2.50;;
25972;SDS011;13765;51.166;4.466;2023-05-07T13:09:22;8.75;;;2.50;;
25972;SDS011;13765;51.166;4.466;2023-05-07T13:11:48;4.18;;;2.13;;
25972;SDS011;13765;51.166;4.466;2023-05-07T13:14:13;6.60;;;2.40;;
25972;SDS011;13765;51.166;4.466;2023-05-07T13:16:40;5.97;;;2.33;;
25972;SDS011;13765;51.166;4.466;2023-05-07T13:19:08;5.40;;;2.20;;
25972;SDS011;13765;51.166;4.466;2023-05-07T13:21:33;8.00;;;2.63;;
25972;SDS011;13765;51.166;4.466;2023-05-07T13:24:01;4.68;;;1.92;;
25972;SDS011;13765;51.166;4.466;2023-05-07T13:26:27;3.55;;;1.65;;
25972;SDS011;13765;51.166;4.466;2023-05-07T13:28:53;3.75;;;2.20;;
25972;SDS011;13765;51.166;4.466;2023-05-07T13:31:19;6.55;;;1.85;;
25972;SDS011;13765;51.166;4.466;2023-05-07T13:33:48;5.88;;;1.50;;
25972;SDS011;13765;51.166;4.466;2023-05-07T13:36:14;4.43;;;1.50;;
25972;SDS011;13765;51.166;4.466;2023-05-07T13:38:42;3.88;;;1.73;;
25972;SDS011;13765;51.166;4.466;2023-05-07T13:41:08;2.50;;;1.60;;
25972;SDS011;13765;51.166;4.466;2023-05-07T13:43:37;7.20;;;1.98;;
25972;SDS011;13765;51.166;4.466;2023-05-07T13:46:03;4.50;;;2.05;;
25972;SDS011;13765;51.166;4.466;2023-05-07T13:48:29;7.32;;;1.95;;
25972;SDS011;13765;51.166;4.466;2023-05-07T13:50:54;2.17;;;1.35;;
25972;SDS011;13765;51.166;4.466;2023-05-07T13:53:23;4.88;;;1.95;;
25972;SDS011;13765;51.166;4.466;2023-05-07T13:55:48;5.13;;;1.67;;
25972;SDS011;13765;51.166;4.466;2023-05-07T13:58:14;3.90;;;1.73;;
25972;SDS011;13765;51.166;4.466;2023-05-07T14:00:40;5.32;;;2.03;;
25972;SDS011;13765;51.166;4.466;2023-05-07T14:03:05;3.20;;;1.67;;
25972;SDS011;13765;51.166;4.466;2023-05-07T14:05:31;5.63;;;2.20;;
25972;SDS011;13765;51.166;4.466;2023-05-07T14:07:59;5.75;;;1.35;;
25972;SDS011;13765;51.166;4.466;2023-05-07T14:10:25;5.07;;;1.95;;
25972;SDS011;13765;51.166;4.466;2023-05-07T14:12:51;2.65;;;1.52;;
25972;SDS011;13765;51.166;4.466;2023-05-07T14:15:17;4.00;;;1.40;;
25972;SDS011;13765;51.166;4.466;2023-05-07T14:17:43;5.45;;;1.50;;
25972;SDS011;13765;51.166;4.466;2023-05-07T14:20:09;4.50;;;1.60;;
25972;SDS011;13765;51.166;4.466;2023-05-07T14:22:35;6.93;;;1.92;;
25972;SDS011;13765;51.166;4.466;2023-05-07T14:25:01;3.88;;;1.50;;
25972;SDS011;13765;51.166;4.466;2023-05-07T14:27:27;3.85;;;1.92;;
25972;SDS011;13765;51.166;4.466;2023-05-07T14:29:53;1.77;;;1.27;;
25972;SDS011;13765;51.166;4.466;2023-05-07T14:32:19;5.03;;;2.25;;
25972;SDS011;13765;51.166;4.466;2023-05-07T14:34:45;8.98;;;2.30;;
25972;SDS011;13765;51.166;4.466;2023-05-07T14:37:11;4.15;;;1.42;;
25972;SDS011;13765;51.166;4.466;2023-05-07T14:39:37;9.93;;;1.95;;
25972;SDS011;13765;51.166;4.466;2023-05-07T14:42:03;4.20;;;1.70;;
25972;SDS011;13765;51.166;4.466;2023-05-07T14:44:28;3.88;;;1.30;;
25972;SDS011;13765;51.166;4.466;2023-05-07T14:46:54;6.93;;;1.58;;
25972;SDS011;13765;51.166;4.466;2023-05-07T14:49:20;6.22;;;2.20;;
25972;SDS011;13765;51.166;4.466;2023-05-07T14:51:46;4.82;;;1.98;;
25972;SDS011;13765;51.166;4.466;2023-05-07T14:54:12;5.93;;;2.65;;
25972;SDS011;13765;51.166;4.466;2023-05-07T14:56:41;4.38;;;1.80;;
25972;SDS011;13765;51.166;4.466;2023-05-07T14:59:09;3.85;;;1.98;;
25972;SDS011;13765;51.166;4.466;2023-05-07T15:01:35;6.85;;;1.95;;
25972;SDS011;13765;51.166;4.466;2023-05-07T15:04:04;4.88;;;2.03;;
25972;SDS011;13765;51.166;4.466;2023-05-07T15:06:30;7.00;;;1.95;;
25972;SDS011;13765;51.166;4.466;2023-05-07T15:08:56;3.85;;;1.77;;
25972;SDS011;13765;51.166;4.466;2023-05-07T15:11:22;3.83;;;1.77;;
25972;SDS011;13765;51.166;4.466;2023-05-07T15:13:50;4.65;;;1.75;;
25972;SDS011;13765;51.166;4.466;2023-05-07T15:16:16;4.28;;;1.63;;
25972;SDS011;13765;51.166;4.466;2023-05-07T15:18:42;6.47;;;2.17;;
25972;SDS011;13765;51.166;4.466;2023-05-07T15:21:10;7.55;;;1.85;;
25972;SDS011;13765;51.166;4.466;2023-05-07T15:23:39;3.88;;;1.63;;
25972;SDS011;13765;51.166;4.466;2023-05-07T15:26:06;4.72;;;1.63;;
25972;SDS011;13765;51.166;4.466;2023-05-07T15:28:33;4.63;;;1.83;;
25972;SDS011;13765;51.166;4.466;2023-05-07T15:30:58;2.83;;;1.70;;
25972;SDS011;13765;51.166;4.466;2023-05-07T15:33:24;5.90;;;1.95;;
25972;SDS011;13765;51.166;4.466;2023-05-07T15:35:50;6.60;;;2.15;;
25972;SDS011;13765;51.166;4.466;2023-05-07T15:38:16;8.20;;;2.42;;
25972;SDS011;13765;51.166;4.466;2023-05-07T15:40:44;7.47;;;2.53;;
25972;SDS011;13765;51.166;4.466;2023-05-07T15:43:09;3.60;;;1.67;;
25972;SDS011;13765;51.166;4.466;2023-05-07T15:45:39;6.22;;;2.42;;